sensor_id;sensor_type;location;lat;lon;timestamp;P1;durP1;ratioP1;P2;durP2;ratioP2
46318;SDS011;32042;50.916;2.926;2022-08-21T00:00:09;3.22;;;1.52;;
46318;SDS011;32042;50.916;2.926;2022-08-21T00:02:36;7.15;;;2.03;;
46318;SDS011;32042;50.916;2.926;2022-08-21T00:05:02;6.50;;;2.10;;
46318;SDS011;32042;50.916;2.926;2022-08-21T00:07:28;8.98;;;2.58;;
46318;SDS011;32042;50.916;2.926;2022-08-21T00:09:55;5.80;;;1.75;;
46318;SDS011;32042;50.916;2.926;2022-08-21T00:12:21;7.23;;;1.73;;
46318;SDS011;32042;50.916;2.926;2022-08-21T00:14:47;5.82;;;2.22;;
46318;SDS011;32042;50.916;2.926;2022-08-21T00:17:13;4.25;;;1.98;;
46318;SDS011;32042;50.916;2.926;2022-08-21T00:19:39;7.10;;;2.17;;
46318;SDS011;32042;50.916;2.926;2022-08-21T00:22:05;7.68;;;2.35;;
46318;SDS011;32042;50.916;2.926;2022-08-21T00:24:31;6.68;;;2.40;;
46318;SDS011;32042;50.916;2.926;2022-08-21T00:26:57;6.40;;;2.30;;
46318;SDS011;32042;50.916;2.926;2022-08-21T00:29:23;8.65;;;2.38;;
46318;SDS011;32042;50.916;2.926;2022-08-21T00:31:49;4.68;;;2.30;;
46318;SDS011;32042;50.916;2.926;2022-08-21T00:34:15;5.78;;;1.85;;
46318;SDS011;32042;50.916;2.926;2022-08-21T00:36:41;6.65;;;2.03;;
46318;SDS011;32042;50.916;2.926;2022-08-21T00:39:08;5.60;;;1.98;;
46318;SDS011;32042;50.916;2.926;2022-08-21T00:41:35;9.57;;;2.27;;
46318;SDS011;32042;50.916;2.926;2022-08-21T00:44:02;4.22;;;1.98;;
46318;SDS011;32042;50.916;2.926;2022-08-21T00:46:29;5.45;;;2.10;;
46318;SDS011;32042;50.916;2.926;2022-08-21T00:48:55;7.45;;;2.05;;
46318;SDS011;32042;50.916;2.926;2022-08-21T00:51:23;5.65;;;1.95;;
46318;SDS011;32042;50.916;2.926;2022-08-21T00:53:55;5.85;;;2.45;;
46318;SDS011;32042;50.916;2.926;2022-08-21T00:56:21;3.78;;;1.95;;
46318;SDS011;32042;50.916;2.926;2022-08-21T00:58:49;2.88;;;1.67;;
46318;SDS011;32042;50.916;2.926;2022-08-21T01:01:15;6.63;;;2.60;;
46318;SDS011;32042;50.916;2.926;2022-08-21T01:03:41;3.58;;;1.73;;
46318;SDS011;32042;50.916;2.926;2022-08-21T01:06:07;6.53;;;2.60;;
46318;SDS011;32042;50.916;2.926;2022-08-21T01:08:34;8.57;;;2.60;;
46318;SDS011;32042;50.916;2.926;2022-08-21T01:11:00;5.93;;;2.35;;
46318;SDS011;32042;50.916;2.926;2022-08-21T01:13:27;5.55;;;2.20;;
46318;SDS011;32042;50.916;2.926;2022-08-21T01:15:55;6.93;;;2.15;;
46318;SDS011;32042;50.916;2.926;2022-08-21T01:18:24;5.57;;;2.30;;
46318;SDS011;32042;50.916;2.926;2022-08-21T01:21:25;3.70;;;2.25;;
46318;SDS011;32042;50.916;2.926;2022-08-21T01:23:44;8.90;;;2.43;;
46318;SDS011;32042;50.916;2.926;2022-08-21T01:26:11;5.17;;;2.00;;
46318;SDS011;32042;50.916;2.926;2022-08-21T01:28:38;12.97;;;2.67;;
46318;SDS011;32042;50.916;2.926;2022-08-21T01:31:06;6.55;;;2.10;;
46318;SDS011;32042;50.916;2.926;2022-08-21T01:33:33;6.45;;;2.28;;
46318;SDS011;32042;50.916;2.926;2022-08-21T01:35:59;3.37;;;2.07;;
46318;SDS011;32042;50.916;2.926;2022-08-21T01:38:26;4.63;;;1.97;;
46318;SDS011;32042;50.916;2.926;2022-08-21T01:40:52;7.38;;;2.40;;
46318;SDS011;32042;50.916;2.926;2022-08-21T01:43:18;5.03;;;2.33;;
46318;SDS011;32042;50.916;2.926;2022-08-21T01:45:44;5.03;;;1.73;;
46318;SDS011;32042;50.916;2.926;2022-08-21T01:48:10;5.30;;;2.47;;
46318;SDS011;32042;50.916;2.926;2022-08-21T01:50:36;6.25;;;2.08;;
46318;SDS011;32042;50.916;2.926;2022-08-21T01:53:03;6.73;;;2.20;;
46318;SDS011;32042;50.916;2.926;2022-08-21T01:55:29;4.00;;;2.33;;
46318;SDS011;32042;50.916;2.926;2022-08-21T01:57:55;7.20;;;2.33;;
46318;SDS011;32042;50.916;2.926;2022-08-21T02:00:22;4.78;;;2.03;;
46318;SDS011;32042;50.916;2.926;2022-08-21T02:02:48;6.00;;;2.43;;
46318;SDS011;32042;50.916;2.926;2022-08-21T02:05:15;9.47;;;2.27;;
46318;SDS011;32042;50.916;2.926;2022-08-21T02:07:42;6.60;;;2.27;;
46318;SDS011;32042;50.916;2.926;2022-08-21T02:10:10;6.27;;;2.37;;
46318;SDS011;32042;50.916;2.926;2022-08-21T02:12:37;3.60;;;1.93;;
46318;SDS011;32042;50.916;2.926;2022-08-21T02:15:03;3.40;;;2.10;;
46318;SDS011;32042;50.916;2.926;2022-08-21T02:17:37;6.90;;;2.43;;
46318;SDS011;32042;50.916;2.926;2022-08-21T02:20:03;4.43;;;2.27;;
46318;SDS011;32042;50.916;2.926;2022-08-21T02:22:29;5.60;;;2.30;;
46318;SDS011;32042;50.916;2.926;2022-08-21T02:24:55;4.23;;;2.20;;
46318;SDS011;32042;50.916;2.926;2022-08-21T02:27:22;6.67;;;2.60;;
46318;SDS011;32042;50.916;2.926;2022-08-21T02:29:48;4.93;;;2.53;;
46318;SDS011;32042;50.916;2.926;2022-08-21T02:32:15;8.47;;;2.27;;
46318;SDS011;32042;50.916;2.926;2022-08-21T02:34:42;8.27;;;2.30;;
46318;SDS011;32042;50.916;2.926;2022-08-21T02:37:08;7.27;;;2.57;;
46318;SDS011;32042;50.916;2.926;2022-08-21T02:39:35;6.33;;;2.43;;
46318;SDS011;32042;50.916;2.926;2022-08-21T02:42:02;6.17;;;2.27;;
46318;SDS011;32042;50.916;2.926;2022-08-21T02:44:29;7.27;;;2.00;;
46318;SDS011;32042;50.916;2.926;2022-08-21T02:46:55;7.93;;;2.00;;
46318;SDS011;32042;50.916;2.926;2022-08-21T02:49:22;6.73;;;2.20;;
46318;SDS011;32042;50.916;2.926;2022-08-21T02:51:49;6.73;;;2.20;;
46318;SDS011;32042;50.916;2.926;2022-08-21T02:54:15;6.60;;;2.23;;
46318;SDS011;32042;50.916;2.926;2022-08-21T02:56:42;9.07;;;2.17;;
46318;SDS011;32042;50.916;2.926;2022-08-21T02:59:08;6.67;;;1.90;;
46318;SDS011;32042;50.916;2.926;2022-08-21T03:01:34;7.73;;;2.63;;
46318;SDS011;32042;50.916;2.926;2022-08-21T03:04:01;6.43;;;2.47;;
46318;SDS011;32042;50.916;2.926;2022-08-21T03:06:28;7.77;;;2.20;;
46318;SDS011;32042;50.916;2.926;2022-08-21T03:08:54;7.90;;;2.27;;
46318;SDS011;32042;50.916;2.926;2022-08-21T03:11:20;5.90;;;2.30;;
46318;SDS011;32042;50.916;2.926;2022-08-21T03:13:46;5.53;;;2.13;;
46318;SDS011;32042;50.916;2.926;2022-08-21T03:16:12;7.37;;;2.57;;
46318;SDS011;32042;50.916;2.926;2022-08-21T03:18:39;11.23;;;2.67;;
46318;SDS011;32042;50.916;2.926;2022-08-21T03:21:05;5.93;;;2.30;;
46318;SDS011;32042;50.916;2.926;2022-08-21T03:23:32;8.23;;;2.80;;
46318;SDS011;32042;50.916;2.926;2022-08-21T03:25:58;5.97;;;2.43;;
46318;SDS011;32042;50.916;2.926;2022-08-21T03:28:24;6.77;;;2.47;;
46318;SDS011;32042;50.916;2.926;2022-08-21T03:30:51;6.10;;;2.67;;
46318;SDS011;32042;50.916;2.926;2022-08-21T03:33:18;9.20;;;2.57;;
46318;SDS011;32042;50.916;2.926;2022-08-21T03:35:45;7.03;;;2.53;;
46318;SDS011;32042;50.916;2.926;2022-08-21T03:38:12;9.93;;;2.50;;
46318;SDS011;32042;50.916;2.926;2022-08-21T03:40:38;10.47;;;2.80;;
46318;SDS011;32042;50.916;2.926;2022-08-21T03:43:04;11.23;;;3.33;;
46318;SDS011;32042;50.916;2.926;2022-08-21T03:45:31;5.60;;;2.70;;
46318;SDS011;32042;50.916;2.926;2022-08-21T03:47:58;6.57;;;2.80;;
46318;SDS011;32042;50.916;2.926;2022-08-21T03:50:25;8.17;;;2.80;;
46318;SDS011;32042;50.916;2.926;2022-08-21T03:52:51;6.33;;;2.90;;
46318;SDS011;32042;50.916;2.926;2022-08-21T03:55:18;4.40;;;2.70;;
46318;SDS011;32042;50.916;2.926;2022-08-21T03:57:44;9.50;;;3.57;;
46318;SDS011;32042;50.916;2.926;2022-08-21T04:00:10;9.17;;;2.73;;
46318;SDS011;32042;50.916;2.926;2022-08-21T04:02:37;5.20;;;2.50;;
46318;SDS011;32042;50.916;2.926;2022-08-21T04:05:04;10.97;;;3.23;;
46318;SDS011;32042;50.916;2.926;2022-08-21T04:07:30;7.40;;;3.60;;
46318;SDS011;32042;50.916;2.926;2022-08-21T04:09:56;6.33;;;2.67;;
46318;SDS011;32042;50.916;2.926;2022-08-21T04:12:22;9.43;;;3.10;;
46318;SDS011;32042;50.916;2.926;2022-08-21T04:14:48;6.83;;;2.70;;
46318;SDS011;32042;50.916;2.926;2022-08-21T04:17:16;8.83;;;3.27;;
46318;SDS011;32042;50.916;2.926;2022-08-21T04:19:42;7.63;;;3.27;;
46318;SDS011;32042;50.916;2.926;2022-08-21T04:22:09;6.63;;;2.93;;
46318;SDS011;32042;50.916;2.926;2022-08-21T04:24:35;7.70;;;2.83;;
46318;SDS011;32042;50.916;2.926;2022-08-21T04:27:01;4.20;;;2.97;;
46318;SDS011;32042;50.916;2.926;2022-08-21T04:29:27;7.47;;;3.07;;
46318;SDS011;32042;50.916;2.926;2022-08-21T04:31:53;8.27;;;2.60;;
46318;SDS011;32042;50.916;2.926;2022-08-21T04:34:20;9.90;;;2.47;;
46318;SDS011;32042;50.916;2.926;2022-08-21T04:36:46;8.47;;;2.90;;
46318;SDS011;32042;50.916;2.926;2022-08-21T04:39:12;8.67;;;3.00;;
46318;SDS011;32042;50.916;2.926;2022-08-21T04:41:38;8.30;;;3.30;;
46318;SDS011;32042;50.916;2.926;2022-08-21T04:44:04;8.40;;;3.07;;
46318;SDS011;32042;50.916;2.926;2022-08-21T04:46:31;7.23;;;2.87;;
46318;SDS011;32042;50.916;2.926;2022-08-21T04:48:57;11.00;;;3.80;;
46318;SDS011;32042;50.916;2.926;2022-08-21T04:51:24;7.73;;;3.17;;
46318;SDS011;32042;50.916;2.926;2022-08-21T04:54:10;7.03;;;2.93;;
46318;SDS011;32042;50.916;2.926;2022-08-21T04:56:40;15.73;;;2.97;;
46318;SDS011;32042;50.916;2.926;2022-08-21T04:59:10;7.03;;;3.03;;
46318;SDS011;32042;50.916;2.926;2022-08-21T05:01:37;9.07;;;3.43;;
46318;SDS011;32042;50.916;2.926;2022-08-21T05:04:03;7.90;;;2.93;;
46318;SDS011;32042;50.916;2.926;2022-08-21T05:06:30;10.17;;;3.10;;
46318;SDS011;32042;50.916;2.926;2022-08-21T05:08:57;8.63;;;2.30;;
46318;SDS011;32042;50.916;2.926;2022-08-21T05:11:23;11.00;;;3.00;;
46318;SDS011;32042;50.916;2.926;2022-08-21T05:13:49;8.67;;;3.07;;
46318;SDS011;32042;50.916;2.926;2022-08-21T05:16:16;10.97;;;3.03;;
46318;SDS011;32042;50.916;2.926;2022-08-21T05:18:42;6.03;;;2.30;;
46318;SDS011;32042;50.916;2.926;2022-08-21T05:21:08;12.07;;;3.63;;
46318;SDS011;32042;50.916;2.926;2022-08-21T05:23:35;10.80;;;3.27;;
46318;SDS011;32042;50.916;2.926;2022-08-21T05:26:02;7.90;;;2.97;;
46318;SDS011;32042;50.916;2.926;2022-08-21T05:28:29;5.17;;;2.57;;
46318;SDS011;32042;50.916;2.926;2022-08-21T05:30:55;10.40;;;3.00;;
46318;SDS011;32042;50.916;2.926;2022-08-21T05:33:21;9.93;;;3.37;;
46318;SDS011;32042;50.916;2.926;2022-08-21T05:35:51;15.97;;;3.40;;
46318;SDS011;32042;50.916;2.926;2022-08-21T05:38:17;7.77;;;3.20;;
46318;SDS011;32042;50.916;2.926;2022-08-21T05:40:44;8.67;;;3.30;;
46318;SDS011;32042;50.916;2.926;2022-08-21T05:43:10;9.30;;;3.00;;
46318;SDS011;32042;50.916;2.926;2022-08-21T05:45:36;12.67;;;3.20;;
46318;SDS011;32042;50.916;2.926;2022-08-21T05:48:09;12.90;;;2.80;;
46318;SDS011;32042;50.916;2.926;2022-08-21T05:50:35;9.40;;;3.10;;
46318;SDS011;32042;50.916;2.926;2022-08-21T05:53:03;10.20;;;3.40;;
46318;SDS011;32042;50.916;2.926;2022-08-21T05:55:29;9.60;;;2.90;;
46318;SDS011;32042;50.916;2.926;2022-08-21T05:57:55;8.47;;;3.17;;
46318;SDS011;32042;50.916;2.926;2022-08-21T06:00:21;8.83;;;3.60;;
46318;SDS011;32042;50.916;2.926;2022-08-21T06:02:48;14.43;;;3.50;;
46318;SDS011;32042;50.916;2.926;2022-08-21T06:05:15;9.47;;;3.30;;
46318;SDS011;32042;50.916;2.926;2022-08-21T06:07:41;10.47;;;2.87;;
46318;SDS011;32042;50.916;2.926;2022-08-21T06:10:07;9.27;;;3.53;;
46318;SDS011;32042;50.916;2.926;2022-08-21T06:12:33;12.77;;;3.47;;
46318;SDS011;32042;50.916;2.926;2022-08-21T06:14:59;11.57;;;3.37;;
46318;SDS011;32042;50.916;2.926;2022-08-21T06:17:25;12.13;;;3.37;;
46318;SDS011;32042;50.916;2.926;2022-08-21T06:19:52;10.33;;;3.20;;
46318;SDS011;32042;50.916;2.926;2022-08-21T06:22:18;8.20;;;3.70;;
46318;SDS011;32042;50.916;2.926;2022-08-21T06:24:44;7.27;;;3.00;;
46318;SDS011;32042;50.916;2.926;2022-08-21T06:27:10;6.83;;;2.83;;
46318;SDS011;32042;50.916;2.926;2022-08-21T06:29:36;10.73;;;3.10;;
46318;SDS011;32042;50.916;2.926;2022-08-21T06:32:03;8.03;;;2.87;;
46318;SDS011;32042;50.916;2.926;2022-08-21T06:34:31;6.00;;;3.13;;
46318;SDS011;32042;50.916;2.926;2022-08-21T06:36:58;11.00;;;3.63;;
46318;SDS011;32042;50.916;2.926;2022-08-21T06:39:24;10.30;;;3.20;;
46318;SDS011;32042;50.916;2.926;2022-08-21T06:41:50;6.50;;;2.75;;
46318;SDS011;32042;50.916;2.926;2022-08-21T06:44:16;13.35;;;3.10;;
46318;SDS011;32042;50.916;2.926;2022-08-21T06:46:44;8.00;;;2.70;;
46318;SDS011;32042;50.916;2.926;2022-08-21T06:49:10;8.20;;;2.53;;
46318;SDS011;32042;50.916;2.926;2022-08-21T06:51:37;8.63;;;3.40;;
46318;SDS011;32042;50.916;2.926;2022-08-21T06:54:03;5.13;;;2.20;;
46318;SDS011;32042;50.916;2.926;2022-08-21T06:56:30;5.38;;;3.15;;
46318;SDS011;32042;50.916;2.926;2022-08-21T06:58:56;10.13;;;3.30;;
46318;SDS011;32042;50.916;2.926;2022-08-21T07:01:23;10.30;;;3.25;;
46318;SDS011;32042;50.916;2.926;2022-08-21T07:03:49;10.27;;;3.10;;
46318;SDS011;32042;50.916;2.926;2022-08-21T07:06:16;11.88;;;3.10;;
46318;SDS011;32042;50.916;2.926;2022-08-21T07:08:42;6.68;;;2.75;;
46318;SDS011;32042;50.916;2.926;2022-08-21T07:11:18;10.60;;;2.83;;
46318;SDS011;32042;50.916;2.926;2022-08-21T07:13:45;7.78;;;2.50;;
46318;SDS011;32042;50.916;2.926;2022-08-21T07:16:11;8.35;;;3.05;;
46318;SDS011;32042;50.916;2.926;2022-08-21T07:18:37;10.25;;;3.20;;
46318;SDS011;32042;50.916;2.926;2022-08-21T07:21:04;8.90;;;3.63;;
46318;SDS011;32042;50.916;2.926;2022-08-21T07:23:32;10.27;;;3.00;;
46318;SDS011;32042;50.916;2.926;2022-08-21T07:25:59;11.63;;;3.30;;
46318;SDS011;32042;50.916;2.926;2022-08-21T07:28:25;10.30;;;3.10;;
46318;SDS011;32042;50.916;2.926;2022-08-21T07:30:52;13.07;;;3.72;;
46318;SDS011;32042;50.916;2.926;2022-08-21T07:33:18;11.48;;;3.50;;
46318;SDS011;32042;50.916;2.926;2022-08-21T07:35:45;10.82;;;3.47;;
46318;SDS011;32042;50.916;2.926;2022-08-21T07:38:11;8.63;;;3.97;;
46318;SDS011;32042;50.916;2.926;2022-08-21T07:40:37;11.95;;;3.60;;
46318;SDS011;32042;50.916;2.926;2022-08-21T07:43:03;8.98;;;3.40;;
46318;SDS011;32042;50.916;2.926;2022-08-21T07:45:30;8.30;;;3.38;;
46318;SDS011;32042;50.916;2.926;2022-08-21T07:47:56;10.68;;;3.47;;
46318;SDS011;32042;50.916;2.926;2022-08-21T07:50:22;9.38;;;3.58;;
46318;SDS011;32042;50.916;2.926;2022-08-21T07:52:48;10.25;;;3.33;;
46318;SDS011;32042;50.916;2.926;2022-08-21T07:55:16;9.70;;;3.78;;
46318;SDS011;32042;50.916;2.926;2022-08-21T07:57:44;12.80;;;4.07;;
46318;SDS011;32042;50.916;2.926;2022-08-21T08:00:12;8.85;;;2.97;;
46318;SDS011;32042;50.916;2.926;2022-08-21T08:02:39;10.52;;;2.72;;
46318;SDS011;32042;50.916;2.926;2022-08-21T08:05:07;9.00;;;3.00;;
46318;SDS011;32042;50.916;2.926;2022-08-21T08:07:33;11.93;;;2.83;;
46318;SDS011;32042;50.916;2.926;2022-08-21T08:09:59;8.15;;;2.80;;
46318;SDS011;32042;50.916;2.926;2022-08-21T08:12:25;5.57;;;2.92;;
46318;SDS011;32042;50.916;2.926;2022-08-21T08:14:56;6.88;;;3.38;;
46318;SDS011;32042;50.916;2.926;2022-08-21T08:17:22;8.90;;;2.63;;
46318;SDS011;32042;50.916;2.926;2022-08-21T08:19:48;10.85;;;3.42;;
46318;SDS011;32042;50.916;2.926;2022-08-21T08:22:15;8.43;;;2.88;;
46318;SDS011;32042;50.916;2.926;2022-08-21T08:24:44;11.25;;;2.80;;
46318;SDS011;32042;50.916;2.926;2022-08-21T08:27:10;12.20;;;2.50;;
46318;SDS011;32042;50.916;2.926;2022-08-21T08:29:36;8.75;;;2.30;;
46318;SDS011;32042;50.916;2.926;2022-08-21T08:32:03;10.63;;;3.13;;
46318;SDS011;32042;50.916;2.926;2022-08-21T08:34:29;9.77;;;3.38;;
46318;SDS011;32042;50.916;2.926;2022-08-21T08:36:55;8.02;;;2.35;;
46318;SDS011;32042;50.916;2.926;2022-08-21T08:39:23;7.90;;;2.33;;
46318;SDS011;32042;50.916;2.926;2022-08-21T08:41:50;10.43;;;2.53;;
46318;SDS011;32042;50.916;2.926;2022-08-21T08:44:18;6.55;;;2.00;;
46318;SDS011;32042;50.916;2.926;2022-08-21T08:46:44;8.88;;;2.40;;
46318;SDS011;32042;50.916;2.926;2022-08-21T08:49:15;11.80;;;2.85;;
46318;SDS011;32042;50.916;2.926;2022-08-21T08:51:51;10.00;;;2.25;;
46318;SDS011;32042;50.916;2.926;2022-08-21T08:57:19;8.13;;;2.10;;
46318;SDS011;32042;50.916;2.926;2022-08-21T08:59:48;9.20;;;2.10;;
46318;SDS011;32042;50.916;2.926;2022-08-21T09:02:16;10.13;;;2.53;;
46318;SDS011;32042;50.916;2.926;2022-08-21T09:04:44;7.03;;;1.88;;
46318;SDS011;32042;50.916;2.926;2022-08-21T09:23:12;9.63;;;2.08;;
46318;SDS011;32042;50.916;2.926;2022-08-21T09:25:58;8.25;;;2.15;;
46318;SDS011;32042;50.916;2.926;2022-08-21T09:28:30;10.35;;;2.08;;
46318;SDS011;32042;50.916;2.926;2022-08-21T09:30:57;7.53;;;1.90;;
46318;SDS011;32042;50.916;2.926;2022-08-21T09:33:27;6.97;;;1.88;;
46318;SDS011;32042;50.916;2.926;2022-08-21T09:35:54;9.55;;;2.38;;
46318;SDS011;32042;50.916;2.926;2022-08-21T09:38:34;10.38;;;2.67;;
46318;SDS011;32042;50.916;2.926;2022-08-21T09:41:03;5.65;;;2.08;;
46318;SDS011;32042;50.916;2.926;2022-08-21T09:43:30;9.25;;;1.85;;
46318;SDS011;32042;50.916;2.926;2022-08-21T09:48:38;8.32;;;1.60;;
46318;SDS011;32042;50.916;2.926;2022-08-21T09:51:09;7.00;;;1.60;;
46318;SDS011;32042;50.916;2.926;2022-08-21T09:53:37;6.03;;;2.20;;
46318;SDS011;32042;50.916;2.926;2022-08-21T09:56:16;8.40;;;1.88;;
46318;SDS011;32042;50.916;2.926;2022-08-21T09:59:11;10.40;;;2.05;;
46318;SDS011;32042;50.916;2.926;2022-08-21T10:01:42;7.47;;;1.95;;
46318;SDS011;32042;50.916;2.926;2022-08-21T10:04:08;3.80;;;1.70;;
46318;SDS011;32042;50.916;2.926;2022-08-21T10:06:35;5.53;;;1.65;;
46318;SDS011;32042;50.916;2.926;2022-08-21T10:09:11;6.40;;;1.83;;
46318;SDS011;32042;50.916;2.926;2022-08-21T10:11:38;6.72;;;1.70;;
46318;SDS011;32042;50.916;2.926;2022-08-21T10:16:47;7.88;;;2.22;;
46318;SDS011;32042;50.916;2.926;2022-08-21T10:19:26;8.40;;;1.80;;
46318;SDS011;32042;50.916;2.926;2022-08-21T10:25:18;3.63;;;1.65;;
46318;SDS011;32042;50.916;2.926;2022-08-21T10:29:53;6.72;;;1.80;;
46318;SDS011;32042;50.916;2.926;2022-08-21T10:38:06;6.65;;;2.15;;
46318;SDS011;32042;50.916;2.926;2022-08-21T10:48:39;6.38;;;2.00;;
46318;SDS011;32042;50.916;2.926;2022-08-21T10:51:13;7.30;;;2.22;;
46318;SDS011;32042;50.916;2.926;2022-08-21T10:56:19;6.85;;;1.77;;
46318;SDS011;32042;50.916;2.926;2022-08-21T10:58:49;7.78;;;2.22;;
46318;SDS011;32042;50.916;2.926;2022-08-21T11:01:18;6.70;;;2.25;;
46318;SDS011;32042;50.916;2.926;2022-08-21T11:03:51;6.07;;;2.30;;
46318;SDS011;32042;50.916;2.926;2022-08-21T11:06:22;7.35;;;2.10;;
46318;SDS011;32042;50.916;2.926;2022-08-21T11:08:55;9.57;;;2.22;;
46318;SDS011;32042;50.916;2.926;2022-08-21T11:13:58;7.18;;;1.80;;
46318;SDS011;32042;50.916;2.926;2022-08-21T11:16:33;8.38;;;2.22;;
46318;SDS011;32042;50.916;2.926;2022-08-21T11:24:31;12.05;;;2.05;;
46318;SDS011;32042;50.916;2.926;2022-08-21T11:29:43;5.72;;;1.95;;
46318;SDS011;32042;50.916;2.926;2022-08-21T11:35:11;13.57;;;2.38;;
46318;SDS011;32042;50.916;2.926;2022-08-21T11:45:54;7.40;;;2.13;;
46318;SDS011;32042;50.916;2.926;2022-08-21T11:51:07;11.52;;;2.70;;
46318;SDS011;32042;50.916;2.926;2022-08-21T11:53:38;6.00;;;2.13;;
46318;SDS011;32042;50.916;2.926;2022-08-21T11:56:08;7.35;;;2.10;;
46318;SDS011;32042;50.916;2.926;2022-08-21T11:58:45;7.35;;;1.70;;
46318;SDS011;32042;50.916;2.926;2022-08-21T12:01:15;11.25;;;2.55;;
46318;SDS011;32042;50.916;2.926;2022-08-21T12:03:51;8.55;;;2.17;;
46318;SDS011;32042;50.916;2.926;2022-08-21T12:06:27;6.00;;;2.28;;
46318;SDS011;32042;50.916;2.926;2022-08-21T12:08:57;6.85;;;2.30;;
46318;SDS011;32042;50.916;2.926;2022-08-21T12:11:24;7.43;;;2.50;;
46318;SDS011;32042;50.916;2.926;2022-08-21T12:19:09;7.82;;;2.50;;
46318;SDS011;32042;50.916;2.926;2022-08-21T12:21:49;6.93;;;1.90;;
46318;SDS011;32042;50.916;2.926;2022-08-21T12:24:17;7.07;;;2.30;;
46318;SDS011;32042;50.916;2.926;2022-08-21T12:26:48;7.30;;;1.90;;
46318;SDS011;32042;50.916;2.926;2022-08-21T12:29:36;6.28;;;2.20;;
46318;SDS011;32042;50.916;2.926;2022-08-21T12:32:04;7.10;;;1.80;;
46318;SDS011;32042;50.916;2.926;2022-08-21T12:34:47;5.65;;;2.15;;
46318;SDS011;32042;50.916;2.926;2022-08-21T12:39:42;11.27;;;2.38;;
46318;SDS011;32042;50.916;2.926;2022-08-21T12:42:20;9.23;;;2.15;;
46318;SDS011;32042;50.916;2.926;2022-08-21T12:44:50;8.05;;;2.40;;
46318;SDS011;32042;50.916;2.926;2022-08-21T12:50:32;4.90;;;1.80;;
46318;SDS011;32042;50.916;2.926;2022-08-21T12:55:26;8.18;;;2.20;;
46318;SDS011;32042;50.916;2.926;2022-08-21T12:57:52;9.02;;;2.45;;
46318;SDS011;32042;50.916;2.926;2022-08-21T13:00:20;7.80;;;2.65;;
46318;SDS011;32042;50.916;2.926;2022-08-21T13:02:48;6.18;;;2.30;;
46318;SDS011;32042;50.916;2.926;2022-08-21T13:05:16;7.32;;;2.05;;
46318;SDS011;32042;50.916;2.926;2022-08-21T13:07:46;8.32;;;2.70;;
46318;SDS011;32042;50.916;2.926;2022-08-21T13:10:21;8.60;;;2.25;;
46318;SDS011;32042;50.916;2.926;2022-08-21T13:12:47;6.95;;;2.00;;
46318;SDS011;32042;50.916;2.926;2022-08-21T13:15:14;5.80;;;1.90;;
46318;SDS011;32042;50.916;2.926;2022-08-21T13:17:50;5.55;;;1.63;;
46318;SDS011;32042;50.916;2.926;2022-08-21T13:22:45;10.77;;;2.03;;
46318;SDS011;32042;50.916;2.926;2022-08-21T13:25:12;8.52;;;1.90;;
46318;SDS011;32042;50.916;2.926;2022-08-21T13:27:39;9.95;;;2.05;;
46318;SDS011;32042;50.916;2.926;2022-08-21T13:30:17;6.97;;;1.88;;
46318;SDS011;32042;50.916;2.926;2022-08-21T13:32:44;3.63;;;1.70;;
46318;SDS011;32042;50.916;2.926;2022-08-21T13:35:59;4.63;;;1.83;;
46318;SDS011;32042;50.916;2.926;2022-08-21T13:38:01;11.50;;;2.00;;
46318;SDS011;32042;50.916;2.926;2022-08-21T13:40:45;6.15;;;2.05;;
46318;SDS011;32042;50.916;2.926;2022-08-21T13:43:12;6.13;;;1.83;;
46318;SDS011;32042;50.916;2.926;2022-08-21T13:45:42;10.02;;;2.08;;
46318;SDS011;32042;50.916;2.926;2022-08-21T13:48:08;10.32;;;2.15;;
46318;SDS011;32042;50.916;2.926;2022-08-21T13:50:35;8.73;;;2.10;;
46318;SDS011;32042;50.916;2.926;2022-08-21T13:53:03;7.13;;;2.00;;
46318;SDS011;32042;50.916;2.926;2022-08-21T13:55:34;6.85;;;2.13;;
46318;SDS011;32042;50.916;2.926;2022-08-21T13:58:01;4.80;;;1.90;;
46318;SDS011;32042;50.916;2.926;2022-08-21T14:00:29;9.60;;;2.22;;
46318;SDS011;32042;50.916;2.926;2022-08-21T14:03:00;6.20;;;1.77;;
46318;SDS011;32042;50.916;2.926;2022-08-21T14:05:28;10.13;;;2.35;;
46318;SDS011;32042;50.916;2.926;2022-08-21T14:07:59;6.47;;;1.65;;
46318;SDS011;32042;50.916;2.926;2022-08-21T14:10:27;5.40;;;1.95;;
46318;SDS011;32042;50.916;2.926;2022-08-21T14:12:57;7.93;;;1.80;;
46318;SDS011;32042;50.916;2.926;2022-08-21T14:15:25;9.35;;;1.80;;
46318;SDS011;32042;50.916;2.926;2022-08-21T14:17:53;3.78;;;1.58;;
46318;SDS011;32042;50.916;2.926;2022-08-21T14:20:27;7.60;;;2.03;;
46318;SDS011;32042;50.916;2.926;2022-08-21T14:22:54;10.93;;;1.98;;
46318;SDS011;32042;50.916;2.926;2022-08-21T14:30:35;5.13;;;1.85;;
46318;SDS011;32042;50.916;2.926;2022-08-21T14:33:02;4.50;;;1.80;;
46318;SDS011;32042;50.916;2.926;2022-08-21T14:35:29;7.90;;;2.10;;
46318;SDS011;32042;50.916;2.926;2022-08-21T14:37:56;8.15;;;2.05;;
46318;SDS011;32042;50.916;2.926;2022-08-21T14:40:23;7.03;;;2.33;;
46318;SDS011;32042;50.916;2.926;2022-08-21T14:42:49;7.28;;;2.03;;
46318;SDS011;32042;50.916;2.926;2022-08-21T14:45:17;6.53;;;2.10;;
46318;SDS011;32042;50.916;2.926;2022-08-21T14:47:44;7.40;;;1.98;;
46318;SDS011;32042;50.916;2.926;2022-08-21T14:50:11;8.98;;;2.05;;
46318;SDS011;32042;50.916;2.926;2022-08-21T14:52:38;5.15;;;2.25;;
46318;SDS011;32042;50.916;2.926;2022-08-21T14:55:05;6.55;;;2.08;;
46318;SDS011;32042;50.916;2.926;2022-08-21T14:57:31;8.52;;;1.92;;
46318;SDS011;32042;50.916;2.926;2022-08-21T14:59:57;7.03;;;2.20;;
46318;SDS011;32042;50.916;2.926;2022-08-21T15:02:24;7.20;;;2.08;;
46318;SDS011;32042;50.916;2.926;2022-08-21T15:04:50;7.85;;;1.98;;
46318;SDS011;32042;50.916;2.926;2022-08-21T15:07:16;7.22;;;2.00;;
46318;SDS011;32042;50.916;2.926;2022-08-21T15:09:43;8.55;;;2.00;;
46318;SDS011;32042;50.916;2.926;2022-08-21T15:12:09;5.82;;;2.08;;
46318;SDS011;32042;50.916;2.926;2022-08-21T15:14:35;8.40;;;1.75;;
46318;SDS011;32042;50.916;2.926;2022-08-21T15:17:05;6.97;;;2.05;;
46318;SDS011;32042;50.916;2.926;2022-08-21T15:19:32;5.38;;;2.20;;
46318;SDS011;32042;50.916;2.926;2022-08-21T15:21:58;8.68;;;2.53;;
46318;SDS011;32042;50.916;2.926;2022-08-21T15:24:24;6.78;;;2.35;;
46318;SDS011;32042;50.916;2.926;2022-08-21T15:26:51;10.65;;;2.20;;
46318;SDS011;32042;50.916;2.926;2022-08-21T15:29:17;6.00;;;1.92;;
46318;SDS011;32042;50.916;2.926;2022-08-21T15:31:55;4.57;;;1.88;;
46318;SDS011;32042;50.916;2.926;2022-08-21T15:34:21;5.68;;;2.25;;
46318;SDS011;32042;50.916;2.926;2022-08-21T15:36:47;5.43;;;1.90;;
46318;SDS011;32042;50.916;2.926;2022-08-21T15:39:14;9.00;;;2.20;;
46318;SDS011;32042;50.916;2.926;2022-08-21T15:41:40;8.57;;;2.22;;
46318;SDS011;32042;50.916;2.926;2022-08-21T15:44:06;10.48;;;2.45;;
46318;SDS011;32042;50.916;2.926;2022-08-21T15:46:34;7.88;;;2.28;;
46318;SDS011;32042;50.916;2.926;2022-08-21T15:49:00;4.10;;;2.20;;
46318;SDS011;32042;50.916;2.926;2022-08-21T15:51:26;7.63;;;2.80;;
46318;SDS011;32042;50.916;2.926;2022-08-21T15:53:52;7.15;;;2.10;;
46318;SDS011;32042;50.916;2.926;2022-08-21T15:56:23;7.65;;;2.10;;
46318;SDS011;32042;50.916;2.926;2022-08-21T15:58:50;8.77;;;2.40;;
46318;SDS011;32042;50.916;2.926;2022-08-21T16:01:17;9.77;;;3.05;;
46318;SDS011;32042;50.916;2.926;2022-08-21T16:03:43;11.55;;;3.00;;
46318;SDS011;32042;50.916;2.926;2022-08-21T16:06:13;10.48;;;3.00;;
46318;SDS011;32042;50.916;2.926;2022-08-21T16:08:39;9.90;;;2.45;;
46318;SDS011;32042;50.916;2.926;2022-08-21T16:11:05;10.23;;;2.40;;
46318;SDS011;32042;50.916;2.926;2022-08-21T16:13:39;12.90;;;3.05;;
46318;SDS011;32042;50.916;2.926;2022-08-21T16:16:12;9.75;;;2.45;;
46318;SDS011;32042;50.916;2.926;2022-08-21T16:18:40;7.88;;;2.25;;
46318;SDS011;32042;50.916;2.926;2022-08-21T16:21:06;9.10;;;2.35;;